Terminal Aerodrome Forecast
Issued by NWS Houston/Galveston, TX

Home | Current Version | Previous Version | Text Only | Print | Product List | Glossary On
Versions: 1 2 3 4 5 6 7 8 9 10 11 12 13 14 15 16 17 18 19 20 21 22 23 24 25 26 27 28 29 30 31 32 33 34 35 36 37 38 39 40 41 42 43 44 45 46 47 48 49 50
000
FTUS44 KHGX 282050 AAA
TAFCLL
TAF AMD
KCLL 282050Z 2821/2918 17012KT P6SM BKN250
     FM282200 18009KT P6SM VCTS SCT040CB OVC250
      TEMPO 2822/2902 VRB25KT 4SM TSRA BKN027CB
     FM290400 VRB05KT P6SM VCSH SCT025 BKN050
     FM291000 06005KT P6SM VCTS BKN035CB=

USA.gov is the U.S. government's official web portal to all federal, state and local government web resources and services.